createdAt,value
2018-11-20T00:02:46.895Z,3.10
2018-11-20T00:05:57.152Z,3.17
2018-11-20T00:09:06.313Z,3.10
2018-11-20T00:12:15.770Z,3.40
2018-11-20T00:15:31.042Z,3.90
2018-11-20T00:18:55.259Z,3.70
2018-11-20T00:22:13.476Z,2.87
2018-11-20T00:25:31.960Z,2.87
2018-11-20T00:28:43.683Z,2.80
2018-11-20T00:31:54.781Z,2.83
2018-11-20T00:35:05.056Z,2.50
2018-11-20T00:38:20.505Z,2.53
2018-11-20T00:41:22.631Z,2.67
2018-11-20T00:44:30.369Z,2.80
2018-11-20T00:47:42.403Z,2.90
2018-11-20T00:51:00.915Z,3.07
2018-11-20T00:54:05.357Z,3.27
2018-11-20T00:57:13.940Z,2.60
2018-11-20T01:00:16.054Z,2.80
2018-11-20T01:03:15.801Z,2.80
2018-11-20T01:06:23.289Z,2.80
2018-11-20T01:09:38.683Z,3.07
2018-11-20T01:12:47.693Z,2.90
2018-11-20T01:16:17.306Z,3.37
2018-11-20T01:19:21.872Z,2.80
2018-11-20T01:22:29.977Z,2.70
2018-11-20T01:25:33.735Z,2.70
2018-11-20T01:28:43.012Z,2.70
2018-11-20T01:31:51.381Z,2.70
2018-11-20T01:34:59.590Z,2.97
2018-11-20T01:38:06.907Z,3.07
2018-11-20T01:41:15.151Z,2.67
2018-11-20T01:44:35.923Z,2.50
2018-11-20T01:47:47.914Z,2.93
2018-11-20T01:50:57.171Z,2.80
2018-11-20T01:53:58.743Z,2.60
2018-11-20T01:56:55.585Z,3.00
2018-11-20T02:00:03.281Z,2.77
2018-11-20T02:03:27.915Z,2.67
2018-11-20T02:06:41.639Z,2.53
2018-11-20T02:09:49.675Z,2.77
2018-11-20T02:12:54.493Z,3.00
2018-11-20T02:16:10.806Z,2.83
2018-11-20T02:19:26.216Z,3.07
2018-11-20T02:22:33.828Z,3.20
2018-11-20T02:25:50.349Z,3.13
2018-11-20T02:28:59.164Z,3.00
2018-11-20T02:32:23.223Z,3.37
2018-11-20T02:35:38.345Z,3.00
2018-11-20T02:38:54.441Z,3.30
2018-11-20T02:42:02.634Z,3.23
2018-11-20T02:45:25.382Z,3.23
2018-11-20T02:48:34.694Z,3.23
2018-11-20T02:51:44.054Z,3.17
2018-11-20T02:55:08.280Z,3.43
2018-11-20T02:58:23.970Z,3.30
2018-11-20T03:01:31.321Z,3.40
2018-11-20T03:04:39.630Z,3.70
2018-11-20T03:08:00.409Z,3.30
2018-11-20T03:11:21.424Z,3.37
2018-11-20T03:14:29.279Z,3.20
2018-11-20T03:17:41.536Z,3.40
2018-11-20T03:20:53.976Z,3.60
2018-11-20T03:24:09.446Z,3.77
2018-11-20T03:27:10.390Z,3.20
2018-11-20T03:30:50.911Z,3.50
2018-11-20T03:34:03.784Z,3.30
2018-11-20T03:37:11.546Z,3.60
2018-11-20T03:40:20.796Z,3.40
2018-11-20T03:43:29.059Z,3.10
2018-11-20T03:46:36.820Z,3.07
2018-11-20T03:49:44.709Z,3.10
2018-11-20T03:52:52.794Z,3.60
2018-11-20T03:55:49.612Z,3.20
2018-11-20T03:59:08.062Z,3.37
2018-11-20T04:02:29.593Z,3.33
2018-11-20T04:05:44.270Z,3.20
2018-11-20T04:08:50.031Z,4.03
2018-11-20T04:11:58.176Z,3.50
2018-11-20T04:15:07.517Z,3.50
2018-11-20T04:18:19.730Z,3.10
2018-11-20T04:21:21.545Z,3.40
2018-11-20T04:24:36.859Z,3.43
2018-11-20T04:27:47.946Z,3.87
2018-11-20T04:31:32.609Z,3.07
2018-11-20T04:34:40.312Z,3.33
2018-11-20T04:37:58.638Z,3.30
2018-11-20T04:41:01.959Z,3.60
2018-11-20T04:44:14.496Z,4.17
2018-11-20T04:47:30.188Z,3.30
2018-11-20T04:50:30.072Z,3.63
2018-11-20T04:53:48.061Z,3.53
2018-11-20T04:56:56.289Z,3.70
2018-11-20T05:00:06.261Z,3.53
2018-11-20T05:03:33.582Z,3.27
2018-11-20T05:06:54.634Z,3.30
2018-11-20T05:09:54.555Z,3.43
2018-11-20T05:13:14.938Z,3.23
2018-11-20T05:16:22.658Z,3.30
2018-11-20T05:19:43.441Z,3.10
2018-11-20T05:22:57.627Z,3.33
2018-11-20T05:26:06.450Z,3.10
2018-11-20T05:29:14.755Z,3.40
2018-11-20T05:32:33.333Z,3.00
2018-11-20T05:35:39.972Z,3.40
2018-11-20T05:38:58.204Z,3.13
2018-11-20T05:42:07.645Z,2.67
2018-11-20T05:45:15.261Z,3.07
2018-11-20T05:48:23.106Z,3.30
2018-11-20T05:51:41.403Z,3.10
2018-11-20T05:54:56.473Z,3.10
2018-11-20T05:58:11.490Z,3.20
2018-11-20T06:01:23.401Z,3.17
2018-11-20T06:04:35.517Z,3.37
2018-11-20T06:07:47.506Z,3.60
2018-11-20T06:10:51.617Z,3.27
2018-11-20T06:14:06.519Z,3.30
2018-11-20T06:17:14.381Z,3.20
2018-11-20T06:20:32.656Z,3.10
2018-11-20T06:23:54.093Z,3.37
2018-11-20T06:27:16.215Z,3.37
2018-11-20T06:30:35.840Z,3.20
2018-11-20T06:33:44.926Z,2.83
2018-11-20T06:36:53.088Z,3.50
2018-11-20T06:40:05.181Z,3.07
2018-11-20T06:43:32.514Z,3.03
2018-11-20T06:46:40.783Z,2.70
2018-11-20T06:49:49.891Z,2.90
2018-11-20T06:52:59.463Z,3.20
2018-11-20T06:56:14.381Z,3.00
2018-11-20T06:59:22.196Z,3.50
2018-11-20T07:02:30.666Z,3.50
2018-11-20T07:05:42.814Z,3.57
2018-11-20T07:08:52.062Z,3.70
2018-11-20T07:11:56.105Z,4.10
2018-11-20T07:15:11.276Z,3.87
2018-11-20T07:18:32.351Z,3.57
2018-11-20T07:21:44.181Z,3.93
2018-11-20T07:24:42.994Z,5.73
2018-11-20T07:27:50.648Z,19.40
2018-11-20T07:31:00.142Z,17.10
2018-11-20T07:34:08.044Z,9.73
2018-11-20T07:37:15.974Z,56.57
2018-11-20T07:40:32.127Z,36.53
2018-11-20T07:43:59.600Z,24.47
2018-11-20T07:47:07.449Z,9.07
2018-11-20T07:50:15.314Z,6.20
2018-11-20T07:53:30.891Z,5.13
2018-11-20T07:56:42.493Z,21.07
2018-11-20T07:59:47.175Z,7.33
2018-11-20T08:02:59.224Z,5.77
2018-11-20T08:06:06.855Z,8.47
2018-11-20T08:09:07.892Z,14.03
2018-11-20T08:12:20.993Z,9.30
2018-11-20T08:15:29.049Z,15.77
2018-11-20T08:18:41.655Z,26.53
2018-11-20T08:21:51.802Z,17.57
2018-11-20T08:24:59.884Z,21.07
2018-11-20T08:28:09.208Z,7.20
2018-11-20T08:31:24.145Z,11.00
2018-11-20T08:34:35.698Z,6.23
2018-11-20T08:37:53.109Z,12.07
2018-11-20T08:41:03.784Z,15.07
2018-11-20T08:44:11.782Z,19.30
2018-11-20T08:47:29.672Z,29.90
2018-11-20T08:50:44.966Z,28.67
2018-11-20T08:54:09.507Z,18.27
2018-11-20T08:57:17.955Z,14.87
2018-11-20T09:00:34.221Z,14.30
2018-11-20T09:03:41.696Z,15.30
2018-11-20T09:06:53.827Z,7.13
2018-11-20T09:10:02.236Z,9.70
2018-11-20T09:13:14.219Z,11.93
2018-11-20T09:16:22.168Z,10.20
2018-11-20T09:19:31.256Z,11.43
2018-11-20T09:22:40.059Z,8.07
2018-11-20T09:25:42.713Z,8.50
2018-11-20T09:28:55.742Z,7.63
2018-11-20T09:32:03.707Z,10.07
2018-11-20T09:35:11.884Z,10.03
2018-11-20T09:38:26.409Z,10.53
2018-11-20T09:41:36.121Z,10.67
2018-11-20T09:45:21.481Z,9.03
2018-11-20T09:48:29.177Z,7.30
2018-11-20T09:51:37.307Z,7.27
2018-11-20T09:54:45.623Z,7.40
2018-11-20T09:57:53.174Z,7.27
2018-11-20T10:01:06.383Z,7.13
2018-11-20T10:04:14.353Z,6.63
2018-11-20T10:09:10.730Z,7.73
2018-11-20T10:12:28.672Z,8.93
2018-11-20T10:15:36.480Z,31.37
2018-11-20T10:18:44.507Z,22.47
2018-11-20T10:21:56.052Z,20.70
2018-11-20T10:25:04.706Z,72.43
2018-11-20T10:28:12.081Z,25.97
2018-11-20T10:31:37.028Z,36.20
2018-11-20T10:34:48.266Z,17.23
2018-11-20T10:37:55.020Z,19.00
2018-11-20T10:41:05.781Z,12.13
2018-11-20T10:44:09.966Z,14.93
2018-11-20T10:47:20.838Z,25.03
2018-11-20T10:50:28.574Z,23.10
2018-11-20T10:53:43.657Z,24.67
2018-11-20T10:56:52.276Z,21.37
2018-11-20T10:59:59.704Z,18.77
2018-11-20T11:03:06.985Z,10.27
2018-11-20T11:06:14.141Z,14.10
2018-11-20T11:09:19.161Z,12.43
2018-11-20T11:12:23.147Z,17.50
2018-11-20T11:15:40.308Z,27.17
2018-11-20T11:18:47.407Z,19.70
2018-11-20T11:22:04.238Z,23.33
2018-11-20T11:25:18.860Z,18.13
2018-11-20T11:28:27.072Z,11.20
2018-11-20T11:31:53.843Z,14.17
2018-11-20T11:35:01.048Z,13.60
2018-11-20T11:38:08.232Z,17.33
2018-11-20T11:41:19.747Z,15.37
2018-11-20T11:44:43.052Z,15.13
2018-11-20T11:47:53.940Z,16.80
2018-11-20T11:51:02.364Z,16.33
2018-11-20T11:54:22.642Z,17.87
2018-11-20T11:57:30.788Z,14.30
2018-11-20T12:00:50.899Z,17.43
2018-11-20T12:03:52.823Z,14.20
2018-11-20T12:07:16.169Z,19.27
2018-11-20T12:10:28.864Z,14.57
2018-11-20T12:13:36.013Z,14.63
2018-11-20T12:16:44.534Z,14.07
2018-11-20T12:19:51.546Z,15.57
2018-11-20T12:23:00.055Z,14.40
2018-11-20T12:26:17.240Z,18.20
2018-11-20T12:29:24.656Z,17.57
2018-11-20T12:32:42.507Z,18.67
2018-11-20T12:35:50.134Z,12.83
2018-11-20T12:38:57.654Z,15.67
2018-11-20T12:42:05.316Z,17.83
2018-11-20T12:45:16.638Z,14.83
2018-11-20T12:48:31.089Z,12.97
2018-11-20T12:51:37.826Z,14.07
2018-11-20T12:54:58.422Z,15.87
2018-11-20T12:58:13.997Z,13.30
2018-11-20T13:01:20.225Z,14.93
2018-11-20T13:04:35.622Z,16.67
2018-11-20T13:07:42.492Z,15.13
2018-11-20T13:10:51.423Z,19.47
2018-11-20T13:13:59.606Z,15.77
2018-11-20T13:17:08.923Z,15.03
2018-11-20T13:20:33.770Z,18.13
2018-11-20T13:23:39.820Z,14.67
2018-11-20T13:26:54.644Z,18.07
2018-11-20T13:30:01.419Z,16.23
2018-11-20T13:32:59.704Z,16.00
2018-11-20T13:36:08.251Z,16.23
2018-11-20T13:39:28.811Z,18.07
2018-11-20T13:42:43.054Z,15.30
2018-11-20T13:45:56.388Z,18.67
2018-11-20T13:49:04.618Z,17.13
2018-11-20T13:52:12.924Z,16.07
2018-11-20T13:55:20.733Z,16.87
2018-11-20T13:58:28.429Z,16.93
2018-11-20T14:01:33.023Z,15.63
2018-11-20T14:04:50.025Z,16.13
2018-11-20T14:07:57.102Z,21.17
2018-11-20T14:11:15.059Z,15.47
2018-11-20T14:14:22.620Z,14.10
2018-11-20T14:17:49.626Z,13.97
2018-11-20T14:20:57.056Z,15.17
2018-11-20T14:24:23.686Z,15.23
2018-11-20T14:27:35.152Z,16.30
2018-11-20T14:30:42.082Z,18.03
2018-11-20T14:33:50.486Z,20.07
2018-11-20T14:37:17.345Z,17.50
2018-11-20T14:40:24.939Z,17.40
2018-11-20T14:43:31.864Z,22.60
2018-11-20T14:46:56.143Z,24.83
2018-11-20T14:50:10.685Z,27.30
2018-11-20T14:53:34.027Z,21.63
2018-11-20T14:56:41.683Z,23.23
2018-11-20T14:59:50.289Z,19.87
2018-11-20T15:02:57.333Z,19.07
2018-11-20T15:06:05.889Z,25.03
2018-11-20T15:09:17.605Z,23.83
2018-11-20T15:12:23.022Z,16.63
2018-11-20T15:15:41.064Z,20.03
2018-11-20T15:18:48.392Z,17.07
2018-11-20T15:21:55.118Z,18.57
2018-11-20T15:25:02.594Z,16.93
2018-11-20T15:28:13.881Z,15.80
2018-11-20T15:31:21.247Z,16.77
2018-11-20T15:34:41.363Z,15.60
2018-11-20T15:37:48.781Z,15.67
2018-11-20T15:40:56.385Z,19.47
2018-11-20T15:44:16.718Z,18.30
2018-11-20T15:47:23.612Z,18.43
2018-11-20T15:50:41.267Z,19.37
2018-11-20T15:53:48.426Z,15.47
2018-11-20T15:57:15.262Z,16.20
2018-11-20T16:00:23.564Z,15.93
2018-11-20T16:03:30.464Z,17.20
2018-11-20T16:06:39.154Z,17.30
2018-11-20T16:09:42.850Z,15.73
2018-11-20T16:12:57.499Z,16.83
2018-11-20T16:16:18.679Z,15.20
2018-11-20T16:19:27.311Z,16.97
2018-11-20T16:22:33.996Z,18.53
2018-11-20T16:25:38.699Z,16.03
2018-11-20T16:28:59.153Z,17.87
2018-11-20T16:32:07.859Z,18.40
2018-11-20T16:35:34.604Z,15.97
2018-11-20T16:38:44.978Z,16.90
2018-11-20T16:41:53.198Z,17.23
2018-11-20T16:45:16.975Z,17.37
2018-11-20T16:48:43.607Z,17.47
2018-11-20T16:51:59.407Z,14.10
2018-11-20T16:55:07.799Z,14.17
2018-11-20T16:58:15.180Z,14.53
2018-11-20T17:01:15.680Z,15.13
2018-11-20T17:04:23.300Z,14.27
2018-11-20T17:07:31.958Z,14.47
2018-11-20T17:10:59.040Z,13.70
2018-11-20T17:14:22.532Z,14.20
2018-11-20T17:17:29.846Z,14.63
2018-11-20T17:20:36.683Z,12.70
2018-11-20T17:23:51.411Z,11.10
2018-11-20T17:26:58.531Z,12.20
2018-11-20T17:30:12.524Z,12.63
2018-11-20T17:33:30.203Z,12.47
2018-11-20T17:36:40.785Z,12.87
2018-11-20T17:40:04.742Z,12.67
2018-11-20T17:43:12.195Z,13.83
2018-11-20T17:46:23.658Z,13.53
2018-11-20T17:49:30.909Z,15.87
2018-11-20T17:52:39.122Z,13.87
2018-11-20T17:55:50.770Z,14.33
2018-11-20T17:59:05.127Z,14.90
2018-11-20T18:02:13.866Z,14.07
2018-11-20T18:05:31.533Z,17.20
2018-11-20T18:08:35.283Z,14.80
2018-11-20T18:11:41.997Z,14.70
2018-11-20T18:14:42.119Z,14.97
2018-11-20T18:17:51.022Z,14.87
2018-11-20T18:20:54.666Z,16.53
2018-11-20T18:24:03.202Z,15.67
2018-11-20T18:27:10.020Z,14.97
2018-11-20T18:30:21.627Z,14.77
2018-11-20T18:33:27.070Z,11.50
2018-11-20T18:36:47.507Z,9.90
2018-11-20T18:40:02.190Z,8.87
2018-11-20T18:43:28.984Z,10.23
2018-11-20T18:46:46.790Z,10.27
2018-11-20T18:50:04.667Z,14.40
2018-11-20T18:53:22.865Z,12.63
2018-11-20T18:56:49.340Z,12.70
2018-11-20T19:00:03.608Z,11.47
2018-11-20T19:03:12.384Z,9.30
2018-11-20T19:06:09.605Z,9.40
2018-11-20T19:09:27.114Z,9.03
2018-11-20T19:12:41.832Z,9.37
2018-11-20T19:15:43.735Z,9.17
2018-11-20T19:18:58.061Z,10.70
2018-11-20T19:22:04.955Z,10.60
2018-11-20T19:25:31.653Z,10.63
2018-11-20T19:28:46.295Z,11.63
2018-11-20T19:32:01.235Z,11.97
2018-11-20T19:35:08.230Z,11.13
2018-11-20T19:38:15.336Z,9.50
2018-11-20T19:41:42.306Z,9.27
2018-11-20T19:45:09.192Z,10.17
2018-11-20T19:48:12.770Z,11.03
2018-11-20T19:51:21.326Z,9.93
2018-11-20T19:54:47.883Z,8.90
2018-11-20T19:57:56.022Z,8.80
2018-11-20T20:01:22.926Z,9.23
2018-11-20T20:04:40.628Z,10.20
2018-11-20T20:07:46.715Z,9.07
2018-11-20T20:10:53.781Z,8.30
2018-11-20T20:14:02.511Z,8.77
2018-11-20T20:17:14.030Z,7.60
2018-11-20T20:20:33.876Z,8.27
2018-11-20T20:23:42.334Z,7.33
2018-11-20T20:26:56.493Z,6.40
2018-11-20T20:30:16.497Z,6.43
2018-11-20T20:33:23.771Z,6.83
2018-11-20T20:36:30.670Z,6.77
2018-11-20T20:39:36.957Z,8.20
2018-11-20T20:42:51.736Z,8.57
2018-11-20T20:46:12.556Z,8.90
2018-11-20T20:49:19.714Z,7.00
2018-11-20T20:52:15.994Z,8.03
2018-11-20T20:55:27.673Z,7.40
2018-11-20T20:58:45.866Z,7.53
2018-11-20T21:01:50.423Z,7.23
2018-11-20T21:05:06.451Z,7.50
2018-11-20T21:08:30.744Z,7.47
2018-11-20T21:11:37.716Z,6.90
2018-11-20T21:15:01.643Z,6.97
2018-11-20T21:18:16.375Z,7.70
2018-11-20T21:21:34.517Z,7.10
2018-11-20T21:24:41.122Z,6.90
2018-11-20T21:27:58.210Z,7.40
2018-11-20T21:30:56.072Z,7.30
2018-11-20T21:33:59.408Z,7.40
2018-11-20T21:37:13.817Z,6.90
2018-11-20T21:40:28.068Z,7.10
2018-11-20T21:43:36.966Z,6.90
2018-11-20T21:46:40.209Z,7.80
2018-11-20T21:49:46.970Z,7.70
2018-11-20T21:53:07.829Z,7.33
2018-11-20T21:56:18.868Z,7.17
2018-11-20T21:59:43.500Z,8.03
2018-11-20T22:02:55.772Z,7.97
2018-11-20T22:06:13.009Z,7.83
2018-11-20T22:09:33.488Z,8.27
2018-11-20T22:12:40.669Z,7.47
2018-11-20T22:15:48.016Z,9.50
2018-11-20T22:19:02.396Z,8.30
2018-11-20T22:22:11.012Z,8.43
2018-11-20T22:25:16.925Z,7.60
2018-11-20T22:28:23.617Z,7.77
2018-11-20T22:31:30.658Z,6.90
2018-11-20T22:34:48.308Z,7.03
2018-11-20T22:38:05.993Z,7.13
2018-11-20T22:41:17.725Z,7.80
2018-11-20T22:44:25.047Z,8.23
2018-11-20T22:47:51.646Z,8.53
2018-11-20T22:51:15.420Z,8.57
2018-11-20T22:54:42.442Z,8.90
2018-11-20T22:57:59.960Z,8.50
2018-11-20T23:01:20.728Z,8.77
2018-11-20T23:04:28.021Z,9.07
2018-11-20T23:07:39.443Z,9.13
2018-11-20T23:10:29.541Z,11.13
2018-11-20T23:13:19.358Z,10.87
2018-11-20T23:16:08.840Z,10.27
2018-11-20T23:18:57.911Z,10.60
2018-11-20T23:21:47.468Z,12.10
2018-11-20T23:24:37.067Z,11.00
2018-11-20T23:27:27.087Z,12.00
2018-11-20T23:30:17.251Z,11.13
2018-11-20T23:33:06.668Z,11.67
2018-11-20T23:35:56.203Z,11.57
2018-11-20T23:38:45.887Z,11.40
2018-11-20T23:41:35.343Z,10.53
2018-11-20T23:44:24.883Z,12.00
2018-11-20T23:47:14.780Z,12.17
2018-11-20T23:50:04.493Z,11.67
2018-11-20T23:52:54.130Z,11.87
2018-11-20T23:55:43.397Z,11.00
2018-11-20T23:58:32.828Z,11.23
